createdAt,value
2022-10-26T00:01:15.114Z,23.00
2022-10-26T00:03:44.234Z,23.00
2022-10-26T00:06:19.981Z,23.00
2022-10-26T00:08:48.099Z,22.90
2022-10-26T00:11:15.598Z,23.00
2022-10-26T00:13:43.091Z,22.90
2022-10-26T00:16:12.825Z,22.90
2022-10-26T00:18:40.374Z,22.80
2022-10-26T00:21:08.271Z,22.80
2022-10-26T00:23:35.086Z,22.80
2022-10-26T00:26:02.462Z,22.80
2022-10-26T00:28:29.615Z,22.80
2022-10-26T00:31:01.877Z,22.80
2022-10-26T00:33:30.126Z,22.80
2022-10-26T00:35:56.955Z,22.80
2022-10-26T00:38:23.852Z,22.70
2022-10-26T00:40:50.820Z,22.70
2022-10-26T00:43:20.350Z,22.70
2022-10-26T00:45:50.024Z,22.70
2022-10-26T00:48:31.933Z,22.60
2022-10-26T00:51:03.211Z,22.60
2022-10-26T00:53:30.773Z,22.60
2022-10-26T00:55:57.623Z,22.50
2022-10-26T00:58:26.241Z,22.50
2022-10-26T01:00:53.282Z,22.50
2022-10-26T01:03:21.016Z,22.40
2022-10-26T01:05:49.637Z,22.50
2022-10-26T01:08:18.293Z,22.50
2022-10-26T01:10:45.740Z,22.40
2022-10-26T01:13:13.412Z,22.40
2022-10-26T01:15:48.662Z,22.40
2022-10-26T01:18:36.549Z,22.40
2022-10-26T01:21:20.472Z,22.30
2022-10-26T01:24:12.145Z,22.30
2022-10-26T01:27:01.589Z,22.30
2022-10-26T01:29:56.091Z,22.30
2022-10-26T01:33:12.500Z,22.30
2022-10-26T01:35:54.363Z,22.30
2022-10-26T01:38:30.484Z,22.30
2022-10-26T01:41:04.963Z,22.30
2022-10-26T01:43:36.753Z,22.30
2022-10-26T01:46:06.404Z,22.30
2022-10-26T01:48:34.437Z,22.30
2022-10-26T01:51:02.419Z,22.30
2022-10-26T01:53:29.299Z,22.30
2022-10-26T01:55:56.498Z,22.20
2022-10-26T01:58:37.009Z,22.20
2022-10-26T02:01:12.744Z,22.20
2022-10-26T02:04:01.382Z,22.20
2022-10-26T02:06:34.176Z,22.20
2022-10-26T02:09:24.070Z,22.10
2022-10-26T02:11:53.864Z,22.10
2022-10-26T02:14:36.363Z,22.10
2022-10-26T02:17:21.999Z,22.10
2022-10-26T02:20:05.157Z,22.10
2022-10-26T02:22:50.369Z,22.00
2022-10-26T02:25:28.548Z,22.00
2022-10-26T02:27:59.740Z,22.00
2022-10-26T02:30:26.997Z,22.00
2022-10-26T02:32:56.668Z,22.00
2022-10-26T02:35:27.946Z,22.00
2022-10-26T02:37:57.204Z,22.00
2022-10-26T02:40:27.176Z,22.00
2022-10-26T02:42:56.997Z,21.90
2022-10-26T02:45:31.378Z,21.90
2022-10-26T02:47:58.700Z,21.90
2022-10-26T02:50:48.653Z,21.90
2022-10-26T02:53:28.029Z,21.80
2022-10-26T02:55:55.029Z,21.80
2022-10-26T02:58:29.584Z,21.80
2022-10-26T03:00:57.719Z,21.80
2022-10-26T03:03:24.812Z,21.70
2022-10-26T03:05:51.864Z,21.70
2022-10-26T03:08:18.830Z,21.70
2022-10-26T03:10:46.266Z,21.70
2022-10-26T03:13:14.340Z,21.60
2022-10-26T03:15:41.548Z,21.60
2022-10-26T03:18:08.529Z,21.60
2022-10-26T03:20:35.485Z,21.60
2022-10-26T03:23:02.300Z,21.60
2022-10-26T03:25:29.139Z,21.60
2022-10-26T03:28:02.207Z,21.50
2022-10-26T03:30:29.953Z,21.50
2022-10-26T03:32:57.146Z,21.50
2022-10-26T03:35:24.086Z,21.50
2022-10-26T03:37:51.200Z,21.40
2022-10-26T03:40:18.269Z,21.40
2022-10-26T03:42:45.160Z,21.40
2022-10-26T03:45:12.080Z,21.40
2022-10-26T03:47:49.218Z,21.40
2022-10-26T03:50:19.143Z,21.40
2022-10-26T03:52:47.869Z,21.40
2022-10-26T03:55:15.455Z,21.40
2022-10-26T03:57:43.220Z,21.40
2022-10-26T04:00:15.615Z,21.40
2022-10-26T04:02:48.562Z,21.40
2022-10-26T04:05:16.824Z,21.40
2022-10-26T04:07:43.944Z,21.40
2022-10-26T04:10:11.066Z,21.30
2022-10-26T04:12:38.600Z,21.30
2022-10-26T04:15:07.436Z,21.30
2022-10-26T04:17:34.433Z,21.30
2022-10-26T04:20:01.289Z,21.30
2022-10-26T04:22:28.111Z,21.30
2022-10-26T04:24:54.896Z,21.20
2022-10-26T04:27:22.487Z,21.20
2022-10-26T04:29:49.280Z,21.20
2022-10-26T04:32:16.044Z,21.10
2022-10-26T04:34:42.965Z,21.10
2022-10-26T04:37:09.723Z,21.10
2022-10-26T04:39:36.529Z,21.00
2022-10-26T04:42:03.337Z,21.10
2022-10-26T04:44:30.119Z,21.00
2022-10-26T04:46:56.876Z,21.10
2022-10-26T04:49:23.825Z,21.10
2022-10-26T04:51:50.645Z,21.10
2022-10-26T04:54:17.420Z,21.10
2022-10-26T04:56:44.208Z,21.00
2022-10-26T04:59:11.017Z,21.00
2022-10-26T05:01:37.919Z,21.00
2022-10-26T05:04:04.846Z,21.00
2022-10-26T05:06:31.951Z,21.00
2022-10-26T05:08:58.697Z,21.00
2022-10-26T05:11:25.544Z,21.00
2022-10-26T05:13:52.297Z,21.00
2022-10-26T05:16:19.140Z,21.00
2022-10-26T05:18:49.464Z,20.90
2022-10-26T05:21:20.519Z,20.90
2022-10-26T05:23:53.872Z,20.90
2022-10-26T05:26:23.792Z,20.90
2022-10-26T05:28:51.979Z,20.80
2022-10-26T05:31:19.069Z,20.80
2022-10-26T05:33:50.241Z,20.80
2022-10-26T05:36:20.986Z,20.80
2022-10-26T05:38:47.987Z,20.80
2022-10-26T05:41:14.795Z,20.80
2022-10-26T05:43:41.629Z,20.80
2022-10-26T05:46:08.384Z,20.80
2022-10-26T05:48:35.165Z,20.80
2022-10-26T05:51:02.192Z,20.80
2022-10-26T05:53:29.080Z,20.80
2022-10-26T05:55:56.677Z,20.80
2022-10-26T05:58:24.439Z,20.80
2022-10-26T06:01:31.382Z,20.80
2022-10-26T06:04:07.781Z,20.80
2022-10-26T06:06:44.941Z,20.90
2022-10-26T06:09:12.699Z,20.80
2022-10-26T06:11:39.815Z,20.90
2022-10-26T06:14:08.645Z,20.80
2022-10-26T06:16:58.133Z,20.80
2022-10-26T06:20:04.212Z,20.80
2022-10-26T06:22:39.957Z,20.80
2022-10-26T06:26:03.832Z,20.90
2022-10-26T06:29:00.106Z,20.80
2022-10-26T06:31:27.578Z,20.80
2022-10-26T06:34:00.104Z,20.80
2022-10-26T06:36:28.651Z,20.80
2022-10-26T06:39:16.633Z,20.80
2022-10-26T06:41:43.715Z,20.80
2022-10-26T06:44:18.450Z,20.80
2022-10-26T06:47:05.837Z,20.80
2022-10-26T06:49:41.269Z,20.80
2022-10-26T06:52:16.909Z,20.90
2022-10-26T06:54:52.177Z,20.90
2022-10-26T06:57:23.961Z,20.90
2022-10-26T06:59:55.927Z,20.90
2022-10-26T07:02:22.927Z,21.00
2022-10-26T07:04:49.761Z,21.00
2022-10-26T07:07:20.774Z,21.00
2022-10-26T07:09:48.148Z,21.10
2022-10-26T07:12:14.986Z,21.10
2022-10-26T07:14:42.069Z,21.20
2022-10-26T07:17:10.153Z,21.20
2022-10-26T07:19:36.951Z,21.30
2022-10-26T07:22:03.841Z,21.40
2022-10-26T07:24:31.329Z,21.30
2022-10-26T07:26:58.788Z,21.40
2022-10-26T07:29:27.366Z,21.40
2022-10-26T07:34:26.304Z,21.50
2022-10-26T07:36:53.180Z,21.60
2022-10-26T07:39:19.972Z,21.60
2022-10-26T07:41:47.281Z,21.70
2022-10-26T07:44:14.180Z,21.70
2022-10-26T07:46:41.026Z,21.80
2022-10-26T07:49:07.806Z,21.90
2022-10-26T07:51:34.804Z,22.00
2022-10-26T07:54:01.587Z,22.00
2022-10-26T07:56:28.870Z,22.10
2022-10-26T07:58:55.772Z,22.20
2022-10-26T08:01:23.061Z,22.30
2022-10-26T08:03:53.682Z,22.30
2022-10-26T08:06:21.798Z,22.40
2022-10-26T08:08:49.028Z,22.50
2022-10-26T08:11:16.695Z,22.60
2022-10-26T08:13:43.622Z,22.60
2022-10-26T08:16:10.864Z,22.70
2022-10-26T08:18:37.778Z,22.80
2022-10-26T08:21:11.197Z,22.90
2022-10-26T08:23:39.788Z,23.00
2022-10-26T08:26:07.187Z,23.20
2022-10-26T08:28:34.205Z,23.40
2022-10-26T08:31:00.976Z,23.60
2022-10-26T08:33:27.820Z,23.80
2022-10-26T08:35:59.768Z,24.10
2022-10-26T08:38:26.993Z,24.40
2022-10-26T08:40:56.378Z,24.70
2022-10-26T08:43:37.303Z,25.00
2022-10-26T08:46:17.616Z,25.40
2022-10-26T08:48:59.954Z,25.80
2022-10-26T08:51:35.448Z,26.10
2022-10-26T08:54:05.659Z,26.30
2022-10-26T08:56:48.545Z,26.40
2022-10-26T08:59:40.724Z,26.50
2022-10-26T09:02:15.853Z,26.50
2022-10-26T09:04:43.182Z,26.50
2022-10-26T09:07:25.306Z,26.40
2022-10-26T09:10:01.374Z,26.30
2022-10-26T09:12:49.885Z,26.20
2022-10-26T09:15:16.881Z,26.10
2022-10-26T09:18:21.732Z,26.00
2022-10-26T09:21:08.646Z,25.90
2022-10-26T09:23:51.492Z,25.80
2022-10-26T09:26:36.653Z,25.70
2022-10-26T09:29:07.621Z,25.80
2022-10-26T09:31:43.528Z,25.90
2022-10-26T09:34:20.702Z,26.00
2022-10-26T09:36:47.623Z,26.10
2022-10-26T09:39:31.747Z,26.10
2022-10-26T09:42:21.018Z,26.10
2022-10-26T09:45:04.014Z,26.10
2022-10-26T09:47:38.472Z,26.10
2022-10-26T09:50:36.518Z,26.00
2022-10-26T09:53:04.289Z,26.00
2022-10-26T09:55:39.411Z,25.90
2022-10-26T09:58:12.990Z,25.80
2022-10-26T10:00:40.776Z,25.80
2022-10-26T10:03:24.932Z,25.80
2022-10-26T10:05:52.953Z,25.80
2022-10-26T10:08:25.096Z,25.70
2022-10-26T10:11:06.664Z,25.70
2022-10-26T10:13:36.767Z,25.60
2022-10-26T10:16:11.505Z,25.60
2022-10-26T10:18:40.297Z,25.60
2022-10-26T10:21:09.044Z,25.60
2022-10-26T10:23:57.515Z,25.60
2022-10-26T10:26:24.418Z,25.60
2022-10-26T10:28:59.943Z,25.60
2022-10-26T10:31:33.840Z,25.60
2022-10-26T10:34:00.712Z,25.70
2022-10-26T10:36:30.219Z,25.70
2022-10-26T10:38:57.203Z,25.70
2022-10-26T10:41:37.467Z,25.70
2022-10-26T10:44:09.133Z,25.70
2022-10-26T10:46:37.893Z,25.70
2022-10-26T10:49:15.919Z,25.70
2022-10-26T10:51:44.188Z,25.70
2022-10-26T10:54:39.601Z,25.70
2022-10-26T10:57:41.553Z,25.70
2022-10-26T11:00:12.772Z,25.70
2022-10-26T11:03:01.373Z,25.70
2022-10-26T11:06:11.342Z,25.70
2022-10-26T11:09:00.256Z,25.70
2022-10-26T11:12:04.103Z,25.70
2022-10-26T11:14:34.838Z,25.70
2022-10-26T11:17:24.281Z,25.80
2022-10-26T11:20:02.680Z,25.80
2022-10-26T11:22:56.244Z,25.80
2022-10-26T11:25:49.411Z,25.80
2022-10-26T11:28:39.967Z,25.80
2022-10-26T11:31:13.539Z,25.90
2022-10-26T11:33:48.684Z,25.90
2022-10-26T11:36:22.019Z,26.00
2022-10-26T11:38:59.955Z,26.00
2022-10-26T11:41:43.347Z,26.00
2022-10-26T11:44:20.396Z,26.10
2022-10-26T11:46:56.887Z,26.20
2022-10-26T11:50:14.694Z,26.20
2022-10-26T11:52:49.237Z,26.20
2022-10-26T11:55:17.156Z,26.30
2022-10-26T11:57:46.687Z,26.30
2022-10-26T12:00:13.545Z,26.40
2022-10-26T12:05:22.146Z,26.50
2022-10-26T12:07:56.510Z,26.50
2022-10-26T12:10:39.138Z,26.50
2022-10-26T12:13:24.096Z,26.50
2022-10-26T12:16:04.404Z,26.60
2022-10-26T12:18:55.994Z,26.70
2022-10-26T12:21:27.523Z,26.70
2022-10-26T12:23:55.785Z,26.80
2022-10-26T12:26:28.711Z,26.80
2022-10-26T12:29:04.567Z,26.80
2022-10-26T12:31:37.379Z,26.90
2022-10-26T12:35:02.707Z,26.90
2022-10-26T12:37:37.039Z,27.00
2022-10-26T12:40:38.652Z,27.10
2022-10-26T12:43:14.752Z,27.10
2022-10-26T12:45:42.847Z,27.20
2022-10-26T12:48:34.790Z,27.20
2022-10-26T12:51:23.141Z,27.20
2022-10-26T12:54:08.098Z,27.30
2022-10-26T12:56:58.836Z,27.40
2022-10-26T12:59:45.935Z,27.50
2022-10-26T13:02:26.723Z,27.60
2022-10-26T13:05:05.030Z,27.70
2022-10-26T13:07:37.948Z,27.80
2022-10-26T13:10:21.509Z,28.10
2022-10-26T13:12:50.912Z,28.30
2022-10-26T13:15:31.930Z,28.50
2022-10-26T13:18:19.688Z,28.90
2022-10-26T13:21:08.766Z,29.20
2022-10-26T13:23:39.685Z,29.50
2022-10-26T13:26:17.773Z,29.50
2022-10-26T13:28:46.422Z,29.60
2022-10-26T13:31:41.626Z,29.50
2022-10-26T13:36:54.385Z,29.30
2022-10-26T13:39:25.488Z,29.20
2022-10-26T13:41:54.934Z,29.20
2022-10-26T13:44:27.618Z,29.10
2022-10-26T13:47:17.332Z,29.10
2022-10-26T13:49:47.836Z,29.00
2022-10-26T13:52:24.014Z,29.00
2022-10-26T13:55:00.045Z,28.90
2022-10-26T13:57:32.755Z,28.90
2022-10-26T14:00:03.956Z,28.80
2022-10-26T14:02:31.287Z,28.70
2022-10-26T14:05:05.794Z,28.70
2022-10-26T14:07:56.634Z,28.60
2022-10-26T14:10:36.372Z,28.50
2022-10-26T14:13:13.093Z,28.40
2022-10-26T14:15:44.721Z,28.40
2022-10-26T14:18:20.377Z,28.30
2022-10-26T14:20:59.989Z,28.30
2022-10-26T14:23:35.649Z,28.20
2022-10-26T14:26:03.911Z,28.20
2022-10-26T14:28:43.876Z,28.20
2022-10-26T14:31:20.656Z,28.10
2022-10-26T14:33:47.547Z,28.00
2022-10-26T14:36:16.267Z,28.00
2022-10-26T14:38:46.522Z,28.00
2022-10-26T14:41:16.304Z,27.90
2022-10-26T14:43:44.450Z,27.90
2022-10-26T14:46:19.856Z,27.80
2022-10-26T14:48:58.849Z,27.80
2022-10-26T14:51:30.844Z,27.70
2022-10-26T14:54:01.053Z,27.70
2022-10-26T14:56:35.518Z,27.70
2022-10-26T14:59:20.784Z,27.60
2022-10-26T15:01:49.559Z,27.60
2022-10-26T15:04:30.677Z,27.60
2022-10-26T15:07:18.423Z,27.50
2022-10-26T15:09:50.709Z,27.50
2022-10-26T15:12:38.709Z,27.50
2022-10-26T15:17:55.911Z,27.40
2022-10-26T15:20:25.485Z,27.30
2022-10-26T15:22:58.001Z,27.30
2022-10-26T15:25:27.918Z,27.30
2022-10-26T15:27:54.902Z,27.30
2022-10-26T15:30:26.456Z,27.20
2022-10-26T15:32:55.395Z,27.20
2022-10-26T15:35:25.089Z,27.20
2022-10-26T15:37:53.625Z,27.20
2022-10-26T15:40:21.043Z,27.10
2022-10-26T15:42:52.014Z,27.10
2022-10-26T15:45:25.706Z,27.10
2022-10-26T15:47:53.259Z,27.00
2022-10-26T15:50:26.646Z,27.00
2022-10-26T15:53:02.356Z,27.00
2022-10-26T15:55:30.624Z,26.90
2022-10-26T15:57:57.448Z,26.80
2022-10-26T16:00:24.245Z,26.80
2022-10-26T16:02:51.135Z,26.70
2022-10-26T16:05:18.112Z,26.70
2022-10-26T16:07:47.837Z,26.60
2022-10-26T16:10:22.580Z,26.50
2022-10-26T16:12:50.345Z,26.50
2022-10-26T16:15:22.281Z,26.40
2022-10-26T16:17:50.282Z,26.40
2022-10-26T16:20:22.955Z,26.40
2022-10-26T16:22:51.421Z,26.30
2022-10-26T16:25:21.876Z,26.30
2022-10-26T16:27:49.666Z,26.20
2022-10-26T16:30:17.430Z,26.20
2022-10-26T16:32:44.382Z,26.20
2022-10-26T16:35:12.164Z,26.10
2022-10-26T16:37:39.258Z,26.10
2022-10-26T16:40:07.621Z,26.10
2022-10-26T16:42:34.504Z,26.10
2022-10-26T16:45:02.940Z,26.10
2022-10-26T16:47:35.630Z,26.10
2022-10-26T16:50:03.686Z,26.00
2022-10-26T16:52:30.726Z,26.10
2022-10-26T16:54:57.556Z,26.00
2022-10-26T16:57:24.457Z,26.00
2022-10-26T16:59:51.305Z,26.00
2022-10-26T17:02:18.763Z,26.00
2022-10-26T17:04:45.629Z,26.00
2022-10-26T17:07:12.734Z,26.00
2022-10-26T17:09:39.577Z,25.90
2022-10-26T17:12:06.560Z,25.90
2022-10-26T17:14:33.349Z,25.90
2022-10-26T17:17:00.166Z,25.90
2022-10-26T17:19:26.911Z,25.90
2022-10-26T17:21:53.673Z,25.80
2022-10-26T17:24:20.680Z,25.80
2022-10-26T17:26:47.564Z,25.80
2022-10-26T17:29:14.564Z,25.70
2022-10-26T17:31:41.572Z,25.70
2022-10-26T17:34:08.372Z,25.70
2022-10-26T17:36:35.384Z,25.70
2022-10-26T17:39:02.379Z,25.60
2022-10-26T17:41:29.505Z,25.70
2022-10-26T17:43:56.267Z,25.60
2022-10-26T17:46:25.693Z,25.60
2022-10-26T17:49:00.429Z,25.50
2022-10-26T17:51:29.454Z,25.50
2022-10-26T17:53:57.316Z,25.50
2022-10-26T17:56:27.128Z,25.40
2022-10-26T17:58:56.376Z,25.40
2022-10-26T18:01:24.123Z,25.40
2022-10-26T18:03:51.846Z,25.40
2022-10-26T18:06:19.213Z,25.30
2022-10-26T18:08:46.314Z,25.30
2022-10-26T18:11:15.695Z,25.20
2022-10-26T18:13:42.650Z,25.20
2022-10-26T18:16:11.615Z,25.20
2022-10-26T18:18:39.829Z,25.20
2022-10-26T18:21:09.490Z,25.10
2022-10-26T18:23:37.053Z,25.10
2022-10-26T18:26:14.927Z,25.10
2022-10-26T18:28:41.972Z,25.00
2022-10-26T18:31:10.972Z,25.00
2022-10-26T18:33:38.400Z,24.90
2022-10-26T18:36:06.723Z,24.90
2022-10-26T18:38:34.037Z,24.90
2022-10-26T18:41:01.329Z,24.90
2022-10-26T18:43:29.706Z,24.90
2022-10-26T18:46:11.282Z,24.90
2022-10-26T18:48:38.749Z,24.80
2022-10-26T18:51:17.316Z,24.80
2022-10-26T18:53:45.689Z,24.80
2022-10-26T18:56:15.255Z,24.80
2022-10-26T18:58:45.509Z,24.80
2022-10-26T19:01:18.263Z,24.80
2022-10-26T19:03:46.071Z,24.70
2022-10-26T19:06:17.473Z,24.70
2022-10-26T19:08:45.488Z,24.60
2022-10-26T19:11:15.081Z,24.60
2022-10-26T19:13:42.668Z,24.60
2022-10-26T19:16:33.496Z,24.60
2022-10-26T19:19:05.745Z,24.50
2022-10-26T19:21:32.876Z,24.50
2022-10-26T19:24:01.216Z,24.50
2022-10-26T19:26:33.284Z,24.40
2022-10-26T19:29:06.187Z,24.40
2022-10-26T19:31:33.828Z,24.30
2022-10-26T19:34:01.405Z,24.30
2022-10-26T19:36:29.058Z,24.20
2022-10-26T19:38:56.471Z,24.20
2022-10-26T19:41:24.054Z,24.20
2022-10-26T19:43:51.374Z,24.20
2022-10-26T19:46:21.228Z,24.20
2022-10-26T19:48:53.100Z,24.10
2022-10-26T19:51:20.689Z,24.10
2022-10-26T19:53:47.685Z,24.00
2022-10-26T19:56:15.552Z,24.00
2022-10-26T19:58:43.912Z,23.90
2022-10-26T20:01:12.540Z,23.80
2022-10-26T20:03:39.561Z,23.80
2022-10-26T20:06:12.683Z,23.80
2022-10-26T20:08:46.096Z,23.80
2022-10-26T20:11:15.783Z,23.70
2022-10-26T20:13:44.243Z,23.70
2022-10-26T20:16:12.173Z,23.70
2022-10-26T20:18:43.915Z,23.70
2022-10-26T20:21:15.077Z,23.60
2022-10-26T20:23:42.634Z,23.60
2022-10-26T20:26:10.948Z,23.60
2022-10-26T20:28:39.454Z,23.60
2022-10-26T20:31:06.317Z,23.60
2022-10-26T20:33:33.150Z,23.50
2022-10-26T20:36:01.121Z,23.50
2022-10-26T20:38:28.167Z,23.50
2022-10-26T20:40:59.562Z,23.50
2022-10-26T20:43:27.996Z,23.50
2022-10-26T20:45:56.238Z,23.40
2022-10-26T20:48:23.692Z,23.40
2022-10-26T20:50:56.808Z,23.40
2022-10-26T20:53:42.754Z,23.40
2022-10-26T20:56:21.844Z,23.40
2022-10-26T20:58:53.797Z,23.40
2022-10-26T21:01:30.651Z,23.40
2022-10-26T21:03:59.499Z,23.40
2022-10-26T21:06:27.057Z,23.40
2022-10-26T21:08:55.319Z,23.40
2022-10-26T21:11:24.116Z,23.30
2022-10-26T21:13:52.590Z,23.30
2022-10-26T21:16:19.467Z,23.30
2022-10-26T21:18:46.245Z,23.20
2022-10-26T21:21:13.179Z,23.20
2022-10-26T21:23:41.120Z,23.20
2022-10-26T21:26:08.727Z,23.20
2022-10-26T21:28:41.723Z,23.20
2022-10-26T21:31:10.933Z,23.10
2022-10-26T21:33:37.878Z,23.10
2022-10-26T21:36:07.356Z,23.10
2022-10-26T21:38:34.337Z,23.10
2022-10-26T21:41:04.900Z,23.10
2022-10-26T21:43:32.949Z,23.10
2022-10-26T21:46:03.602Z,23.10
2022-10-26T21:48:31.945Z,23.10
2022-10-26T21:51:00.583Z,23.10
2022-10-26T21:53:27.855Z,23.10
2022-10-26T21:56:09.832Z,23.10
2022-10-26T21:58:37.033Z,23.10
2022-10-26T22:01:06.329Z,23.10
2022-10-26T22:03:33.520Z,23.10
2022-10-26T22:06:00.816Z,23.10
2022-10-26T22:08:28.964Z,23.10
2022-10-26T22:10:56.232Z,23.10
2022-10-26T22:13:23.629Z,23.00
2022-10-26T22:16:11.537Z,23.10
2022-10-26T22:18:40.983Z,23.10
2022-10-26T22:21:08.765Z,23.10
2022-10-26T22:23:38.437Z,23.00
2022-10-26T22:26:07.174Z,23.10
2022-10-26T22:28:39.919Z,23.00
2022-10-26T22:31:12.768Z,23.00
2022-10-26T22:33:39.791Z,23.00
2022-10-26T22:36:13.590Z,22.90
2022-10-26T22:38:41.311Z,22.90
2022-10-26T22:41:08.648Z,23.00
2022-10-26T22:43:35.784Z,22.90
2022-10-26T22:46:05.216Z,22.90
2022-10-26T22:48:32.949Z,22.80
2022-10-26T22:50:59.766Z,22.80
2022-10-26T22:53:26.504Z,22.80
2022-10-26T22:55:53.385Z,22.80
2022-10-26T22:58:20.181Z,22.70
2022-10-26T23:00:47.000Z,22.70
2022-10-26T23:03:13.775Z,22.70
2022-10-26T23:05:49.890Z,22.70
2022-10-26T23:08:16.681Z,22.60
2022-10-26T23:10:43.517Z,22.60
2022-10-26T23:13:10.333Z,22.60
2022-10-26T23:15:37.227Z,22.60
2022-10-26T23:18:04.143Z,22.50
2022-10-26T23:20:33.713Z,22.50
2022-10-26T23:23:01.164Z,22.50
2022-10-26T23:25:28.430Z,22.50
2022-10-26T23:27:55.234Z,22.50
2022-10-26T23:30:22.043Z,22.50
2022-10-26T23:32:49.001Z,22.50
2022-10-26T23:35:16.057Z,22.50
2022-10-26T23:37:42.800Z,22.50
2022-10-26T23:40:10.439Z,22.50
2022-10-26T23:42:37.316Z,22.50
2022-10-26T23:45:04.363Z,22.50
2022-10-26T23:47:31.197Z,22.50
2022-10-26T23:49:58.026Z,22.50
2022-10-26T23:52:24.789Z,22.50
2022-10-26T23:54:51.535Z,22.40
2022-10-26T23:57:18.334Z,22.40
2022-10-26T23:59:45.120Z,22.40
